Time;durP1;ratioP1;P1;durP2;ratioP2;P2;SDS_P1;SDS_P2;PMS_P1;PMS_P2;Temp;Humidity;BMP_temperature;BMP_pressure;BME280_temperature;BME280_humidity;BME280_pressure;Samples;Min_cycle;Max_cycle;Signal;HPM_P1;HPM_P2
2022/08/21 00:02:59;;;;;;;7.70;5.32;;;;;;;20.31;73.57;99213.66;7793197;32;39279;-74
2022/08/21 00:07:16;;;;;;;8.23;4.62;;;;;;;19.93;74.47;99212.16;7779300;32;40683;-74
2022/08/21 00:11:33;;;;;;;7.82;4.80;;;;;;;19.84;75.66;99215.84;7765971;32;37974;-74
2022/08/21 00:15:50;;;;;;;9.07;5.30;;;;;;;19.75;75.85;99212.41;7788721;32;37657;-74
2022/08/21 00:20:08;;;;;;;10.00;5.00;;;;;;;20.13;74.54;99208.41;7793103;32;39138;-73
2022/08/21 00:24:25;;;;;;;8.80;5.37;;;;;;;20.11;73.85;99201.59;7791476;32;39889;-74
2022/08/21 00:28:41;;;;;;;7.90;5.50;;;;;;;20.18;73.62;99208.16;7792967;32;38470;-74
2022/08/21 00:32:58;;;;;;;12.70;5.57;;;;;;;20.04;74.25;99203.03;7793016;32;36906;-74
2022/08/21 00:37:15;;;;;;;10.95;5.68;;;;;;;19.62;75.80;99210.75;7790955;32;39235;-74
2022/08/21 00:41:31;;;;;;;9.90;5.87;;;;;;;19.44;76.60;99201.91;7792198;32;39965;-75
2022/08/21 00:45:54;;;;;;;10.30;6.35;;;;;;;19.92;75.01;99196.69;7792877;32;37684;-74
2022/08/21 00:50:11;;;;;;;10.50;6.55;;;;;;;20.21;74.09;99199.16;7792780;32;37112;-74
2022/08/21 00:54:38;;;;;;;11.90;6.85;;;;;;;19.92;74.92;99193.94;7792818;32;40025;-75
2022/08/21 00:59:00;;;;;;;14.53;7.30;;;;;;;19.86;75.52;99180.34;7792819;32;40881;-74
2022/08/21 01:03:20;;;;;;;11.60;7.03;;;;;;;19.36;77.62;99189.00;7792670;32;37948;-75
2022/08/21 01:07:38;;;;;;;12.35;7.85;;;;;;;19.72;76.19;99181.84;7776578;32;37746;-74
2022/08/21 01:11:55;;;;;;;12.80;8.18;;;;;;;19.77;76.08;99181.62;7765322;32;39924;-74
2022/08/21 01:16:13;;;;;;;13.77;8.30;;;;;;;19.51;77.22;99185.56;7751440;32;40817;-74
2022/08/21 01:20:29;;;;;;;12.63;8.55;;;;;;;19.27;77.87;99181.62;7765305;32;36997;-74
2022/08/21 01:24:47;;;;;;;12.82;8.52;;;;;;;19.51;77.30;99175.28;7765234;32;35906;-74
2022/08/21 01:29:39;;;;;;;12.15;7.68;;;;;;;19.99;75.64;99177.53;7765163;32;39240;-74
2022/08/21 01:33:56;;;;;;;15.23;8.77;;;;;;;19.42;77.71;99177.37;7769162;32;39051;-74
2022/08/21 01:38:12;;;;;;;12.95;8.40;;;;;;;19.72;76.19;99174.34;7766005;32;37923;-73
2022/08/21 01:42:28;;;;;;;13.52;8.80;;;;;;;19.70;76.90;99176.66;7791959;32;37038;-74
2022/08/21 01:46:44;;;;;;;13.68;9.13;;;;;;;19.81;75.96;99161.22;7792150;32;39959;-74
2022/08/21 01:51:00;;;;;;;14.85;9.25;;;;;;;19.77;76.58;99165.03;7791963;32;39894;-74
2022/08/21 01:55:18;;;;;;;15.18;9.48;;;;;;;19.47;77.83;99157.78;7791565;32;37864;-73
2022/08/21 01:59:35;;;;;;;13.77;8.85;;;;;;;19.82;76.73;99162.84;7791920;32;37013;-74
2022/08/21 02:03:51;;;;;;;14.68;9.68;;;;;;;19.73;77.06;99158.56;7772619;32;39734;-74
2022/08/21 02:08:08;;;;;;;16.08;9.70;;;;;;;19.80;76.43;99158.78;7764410;32;39908;-75
2022/08/21 02:12:24;;;;;;;16.35;9.95;;;;;;;19.97;76.03;99160.47;7763554;32;38689;-74
2022/08/21 02:16:41;;;;;;;16.60;9.70;;;;;;;20.06;75.64;99163.94;7764390;32;37243;-74
2022/08/21 02:20:57;;;;;;;16.40;9.48;;;;;;;20.24;74.59;99148.63;7764015;32;39376;-75
2022/08/21 02:25:13;;;;;;;14.75;9.40;;;;;;;19.79;76.35;99155.22;7764287;32;39629;-73
2022/08/21 02:29:29;;;;;;;15.85;9.95;;;;;;;20.02;75.68;99154.72;7764072;32;38444;-74
2022/08/21 02:33:45;;;;;;;14.85;10.25;;;;;;;20.05;74.56;99143.75;7785815;32;36957;-74
2022/08/21 02:38:05;;;;;;;14.95;9.90;;;;;;;19.83;76.11;99150.62;7791339;32;38232;-74
2022/08/21 02:42:21;;;;;;;18.48;10.35;;;;;;;19.68;76.50;99145.78;7790583;32;40091;-73
2022/08/21 02:46:37;;;;;;;17.08;9.57;;;;;;;19.36;78.07;99145.59;7790474;32;38557;-74
2022/08/21 02:51:05;;;;;;;14.18;9.30;;;;;;;20.02;75.39;99150.00;7790813;32;37712;-74
2022/08/21 02:55:25;;;;;;;15.27;9.90;;;;;;;19.98;75.26;99162.91;7776631;32;39994;-74
2022/08/21 02:59:41;;;;;;;15.98;9.70;;;;;;;19.94;75.33;99155.66;7790422;32;40577;-74
2022/08/21 03:03:57;;;;;;;14.77;9.02;;;;;;;19.70;75.90;99151.78;7766982;32;37802;-74
2022/08/21 03:08:15;;;;;;;17.35;9.88;;;;;;;19.61;76.59;99156.59;7762899;32;37693;-74
2022/08/21 03:12:31;;;;;;;16.62;9.73;;;;;;;19.69;76.48;99147.37;7765456;32;39361;-73
2022/08/21 03:16:47;;;;;;;15.13;9.75;;;;;;;19.76;76.05;99155.94;7789808;32;39751;-74
2022/08/21 03:21:03;;;;;;;14.07;8.45;;;;;;;20.02;75.00;99154.72;7790366;32;37881;-74
2022/08/21 03:25:24;;;;;;;15.90;9.07;;;;;;;20.13;74.42;99146.72;7791546;32;37152;-74
2022/08/21 03:29:56;;;;;;;18.00;8.95;;;;;;;20.16;73.90;99135.78;7754697;32;38921;-74
2022/08/21 03:34:12;;;;;;;15.98;8.85;;;;;;;20.22;73.53;99142.66;7776999;32;40107;-74
2022/08/21 03:38:31;;;;;;;18.45;9.13;;;;;;;19.93;74.08;99135.50;7793630;32;37853;-74
2022/08/21 03:42:47;;;;;;;17.30;9.38;;;;;;;20.24;73.58;99145.88;7793432;32;36081;-74
2022/08/21 03:47:04;;;;;;;13.27;8.35;;;;;;;20.17;73.68;99155.94;7793625;32;39106;-74
2022/08/21 03:51:20;;;;;;;15.15;8.95;;;;;;;19.70;75.13;99144.28;7793218;32;40790;-74
2022/08/21 03:55:36;;;;;;;13.88;8.48;;;;;;;20.39;72.95;99151.81;7793092;32;38666;-74
2022/08/21 03:59:54;;;;;;;13.65;8.90;;;;;;;20.17;74.19;99150.41;7793424;32;36950;-74
2022/08/21 04:04:10;;;;;;;12.65;8.32;;;;;;;20.01;74.99;99153.13;7769155;32;39263;-74
2022/08/21 04:08:28;;;;;;;14.90;9.40;;;;;;;20.12;74.83;99154.22;7766024;32;38939;-74
2022/08/21 04:12:44;;;;;;;14.32;9.15;;;;;;;19.36;77.60;99162.16;7766029;32;37847;-74
2022/08/21 04:17:00;;;;;;;15.20;9.15;;;;;;;19.87;76.00;99164.56;7766032;32;37703;-74
2022/08/21 04:21:17;;;;;;;15.77;9.57;;;;;;;19.97;75.75;99172.38;7765989;32;39351;-74
2022/08/21 04:25:35;;;;;;;13.62;9.07;;;;;;;20.03;75.47;99173.72;7755131;32;38943;-74
2022/08/21 04:29:51;;;;;;;14.20;8.02;;;;;;;19.93;74.99;99173.41;7765813;32;38341;-74
2022/08/21 04:34:07;;;;;;;15.68;8.73;;;;;;;19.93;75.44;99178.94;7788780;32;36660;-74
2022/08/21 04:38:23;;;;;;;13.02;8.20;;;;;;;20.05;74.94;99181.69;7793045;32;39640;-74
2022/08/21 04:42:51;;;;;;;14.68;8.10;;;;;;;19.95;75.31;99174.66;7792218;32;39911;-74
2022/08/21 04:47:07;;;;;;;12.90;7.65;;;;;;;20.00;75.02;99179.94;7792826;32;37573;-78
2022/08/21 04:51:29;;;;;;;13.60;8.07;;;;;;;20.53;72.67;99174.34;7792856;32;37708;-74
2022/08/21 04:55:46;;;;;;;11.50;7.22;;;;;;;20.34;73.25;99182.53;7776291;32;39816;-74
2022/08/21 05:00:05;;;;;;;12.13;7.18;;;;;;;20.39;73.01;99196.09;7792222;32;40713;-74
2022/08/21 05:04:30;;;;;;;11.23;7.18;;;;;;;19.94;75.07;99197.97;7766657;32;38029;-75
2022/08/21 05:08:48;;;;;;;12.40;6.60;;;;;;;19.86;74.86;99201.66;7770830;32;36033;-75
2022/08/21 05:13:05;;;;;;;12.23;7.20;;;;;;;20.35;72.70;99206.25;7792505;32;39931;-74
2022/08/21 05:17:22;;;;;;;10.65;6.62;;;;;;;20.05;73.78;99204.62;7778621;32;40127;-74
2022/08/21 05:21:45;;;;;;;11.40;6.25;;;;;;;20.49;71.63;99203.91;7792284;32;38602;-71
2022/08/21 05:26:01;;;;;;;11.67;6.37;;;;;;;20.40;72.01;99214.31;7785953;32;37013;-77
2022/08/21 05:30:17;;;;;;;10.82;6.32;;;;;;;20.20;72.39;99211.38;7765202;32;39061;-73
2022/08/21 05:34:33;;;;;;;13.10;6.95;;;;;;;20.34;71.81;99222.06;7765142;32;39705;-74
2022/08/21 05:38:51;;;;;;;11.98;6.55;;;;;;;20.17;72.36;99222.34;7765051;32;37734;-72
2022/08/21 05:43:07;;;;;;;9.90;6.40;;;;;;;19.99;73.02;99221.78;7785700;32;37612;-72
2022/08/21 05:47:23;;;;;;;11.02;6.82;;;;;;;19.63;73.24;99228.97;7790889;32;39320;-75
2022/08/21 05:51:41;;;;;;;10.40;6.70;;;;;;;20.33;71.25;99216.87;7792005;32;40738;-76
2022/08/21 05:55:57;;;;;;;13.60;6.35;;;;;;;19.99;72.33;99224.56;7777995;32;37668;-74
2022/08/21 06:00:14;;;;;;;12.15;6.75;;;;;;;20.40;70.94;99219.84;7777967;32;37533;-74
2022/08/21 06:04:34;;;;;;;9.27;6.40;;;;;;;20.19;71.76;99223.59;7791847;32;40020;-75
2022/08/21 06:08:50;;;;;;;9.55;6.32;;;;;;;20.27;71.30;99227.41;7772873;32;40673;-74
2022/08/21 06:13:06;;;;;;;11.18;7.03;;;;;;;20.00;72.32;99227.00;7781474;32;37899;-75
2022/08/21 06:17:23;;;;;;;11.63;7.03;;;;;;;19.82;73.08;99223.69;7770858;32;37684;-75
2022/08/21 06:21:39;;;;;;;10.35;6.85;;;;;;;19.64;73.82;99233.34;7763965;32;40058;-75
2022/08/21 06:25:55;;;;;;;9.93;6.50;;;;;;;19.95;73.16;99218.13;7777597;32;39886;-75
2022/08/21 06:30:11;;;;;;;11.38;6.95;;;;;;;20.51;70.60;99220.97;7783383;32;38159;-74
2022/08/21 06:34:27;;;;;;;9.50;6.32;;;;;;;20.44;70.56;99223.53;7791248;32;37605;-76
2022/08/21 06:38:44;;;;;;;11.10;6.75;;;;;;;20.29;71.20;99218.75;7791093;32;40834;-75
2022/08/21 06:43:13;;;;;;;11.77;6.95;;;;;;;20.43;70.58;99219.16;7777572;32;39945;-75
2022/08/21 06:47:30;;;;;;;9.77;6.03;;;;;;;20.13;72.01;99215.87;7764727;32;38672;-76
2022/08/21 06:51:46;;;;;;;10.32;6.40;;;;;;;20.16;71.94;99213.25;7764023;32;37735;-76
2022/08/21 06:56:02;;;;;;;10.15;6.47;;;;;;;20.18;72.09;99213.69;7782907;32;39336;-75
2022/08/21 07:00:18;;;;;;;10.13;6.62;;;;;;;20.10;72.26;99209.09;7788198;32;40668;-75
2022/08/21 07:04:35;;;;;;;10.20;6.57;;;;;;;20.34;71.52;99211.00;7770401;32;38350;-76
2022/08/21 07:08:51;;;;;;;9.88;6.57;;;;;;;20.06;72.69;99211.78;7793307;32;37090;-75
2022/08/21 07:13:08;;;;;;;9.85;6.20;;;;;;;20.26;72.23;99204.47;7793836;32;40002;-76
2022/08/21 07:17:25;;;;;;;11.80;7.20;;;;;;;20.34;71.66;99204.66;7792659;32;40736;-76
2022/08/21 07:21:41;;;;;;;13.52;7.03;;;;;;;20.69;69.73;99210.41;7793172;32;37944;-75
2022/08/21 07:25:57;;;;;;;12.55;6.70;;;;;;;20.04;72.16;99216.03;7788011;32;37589;-75
2022/08/21 07:30:13;;;;;;;13.62;7.25;;;;;;;20.22;71.51;99213.81;7787590;32;39004;-76
2022/08/21 07:34:29;;;;;;;12.57;7.03;;;;;;;20.23;71.57;99216.22;7787757;32;39943;-76
2022/08/21 07:38:46;;;;;;;13.23;7.20;;;;;;;20.31;71.02;99217.22;7789550;32;38617;-76
2022/08/21 07:43:03;;;;;;;10.32;7.03;;;;;;;20.95;69.50;99212.69;7793774;32;37762;-76
2022/08/21 07:47:19;;;;;;;10.40;6.82;;;;;;;20.80;69.47;99217.06;7793606;32;40098;-76
2022/08/21 07:51:56;;;;;;;9.88;6.28;;;;;;;21.22;67.46;99209.41;7792947;32;40926;-76
2022/08/21 07:56:13;;;;;;;10.13;6.32;;;;;;;20.70;69.30;99206.50;7793369;32;37801;-75
2022/08/21 08:00:30;;;;;;;8.98;6.28;;;;;;;21.27;67.93;99207.19;7793213;32;37137;-76
2022/08/21 08:04:46;;;;;;;9.50;6.15;;;;;;;20.73;69.18;99210.50;7793467;32;39936;-76
2022/08/21 08:09:05;;;;;;;11.57;6.00;;;;;;;21.45;67.07;99190.97;7792535;32;39884;-76
2022/08/21 08:13:21;;;;;;;10.77;6.40;;;;;;;21.24;68.28;99190.47;7793164;32;37797;-76
2022/08/21 08:17:38;;;;;;;10.40;6.30;;;;;;;21.30;68.17;99186.22;7793082;32;37770;-76
2022/08/21 08:21:54;;;;;;;10.50;6.40;;;;;;;21.25;67.95;99184.56;7793086;32;39460;-76
2022/08/21 08:26:11;;;;;;;17.60;6.07;;;;;;;21.08;68.64;99182.16;7793018;32;40787;-76
2022/08/21 08:30:27;;;;;;;8.75;5.53;;;;;;;21.19;68.15;99188.75;7792986;32;37647;-76
2022/08/21 08:34:48;;;;;;;12.45;7.70;;;;;;;21.05;68.30;99180.09;7793057;32;36947;-77
2022/08/21 08:39:05;;;;;;;12.43;8.10;;;;;;;20.75;69.99;99184.06;7779033;32;39247;-77
2022/08/21 08:43:26;;;;;;;10.25;6.43;;;;;;;20.29;71.41;99180.00;7792898;32;40582;-77
2022/08/21 08:47:49;;;;;;;10.63;6.10;;;;;;;20.93;69.73;99176.22;7792761;32;38657;-77
2022/08/21 08:52:30;;;;;;;11.15;7.05;;;;;;;21.33;68.58;99177.22;7779454;32;37088;-77
2022/08/21 08:56:47;;;;;;;9.27;6.12;;;;;;;21.29;68.82;99181.88;7782879;32;39091;-77
2022/08/21 09:01:07;;;;;;;9.88;5.68;;;;;;;21.47;67.24;99176.78;7792640;32;40866;-77
2022/08/21 09:05:49;;;;;;;11.32;5.95;;;;;;;21.02;69.54;99178.81;7779020;32;37965;-77
2022/08/21 09:10:11;;;;;;;7.60;5.30;;;;;;;20.97;69.54;99179.91;7779138;32;36967;-77
2022/08/21 09:14:50;;;;;;;9.88;5.72;;;;;;;21.66;67.74;99174.06;7792710;32;39255;-77
2022/08/21 09:19:15;;;;;;;12.63;5.57;;;;;;;21.46;67.85;99175.97;7792433;32;40067;-77
2022/08/21 09:24:02;;;;;;;10.32;5.62;;;;;;;21.57;67.92;99165.13;7792352;32;37630;-75
2022/08/21 09:28:18;;;;;;;10.10;5.30;;;;;;;21.97;66.08;99164.03;7792432;32;37729;-74
2022/08/21 09:32:38;;;;;;;10.38;5.28;;;;;;;21.51;66.99;99161.03;7792427;32;39232;-75
2022/08/21 09:36:54;;;;;;;9.35;5.68;;;;;;;22.03;66.95;99157.03;7792395;32;40846;-75
2022/08/21 09:41:11;;;;;;;9.18;4.95;;;;;;;21.84;66.95;99159.81;7792085;32;39432;-75
2022/08/21 09:45:27;;;;;;;7.40;4.60;;;;;;;21.94;65.69;99156.44;7778497;32;36972;-75
2022/08/21 09:49:49;;;;;;;7.68;5.05;;;;;;;21.80;66.54;99153.34;7792236;32;40121;-75
2022/08/21 09:54:37;;;;;;;7.35;4.80;;;;;;;21.73;67.12;99154.81;7792195;32;40008;-75
2022/08/21 09:58:53;;;;;;;6.95;4.62;;;;;;;22.13;65.73;99153.69;7791960;32;38469;-75
2022/08/21 10:03:21;;;;;;;8.25;4.90;;;;;;;22.27;65.23;99155.16;7791879;32;36733;-75
2022/08/21 10:07:38;;;;;;;6.45;3.97;;;;;;;22.05;66.06;99153.91;7791725;32;39966;-75
2022/08/21 10:12:15;;;;;;;6.60;4.30;;;;;;;22.34;65.35;99157.28;7791751;32;39849;-75
2022/08/21 10:16:43;;;;;;;8.35;4.70;;;;;;;22.48;64.80;99152.81;7779567;32;37914;-75
2022/08/21 10:21:12;;;;;;;10.52;4.62;;;;;;;22.83;62.88;99162.97;7778505;32;36867;-75
2022/08/21 10:25:43;;;;;;;6.78;4.57;;;;;;;22.32;64.42;99160.44;7791467;32;40047;-76
2022/08/21 10:31:01;;;;;;;6.18;4.53;;;;;;;22.34;64.82;99163.66;7780013;32;41202;-76
2022/08/21 10:35:30;;;;;;;8.32;3.78;;;;;;;22.73;63.11;99169.13;7664059;32;37443;-82
2022/08/21 10:39:51;;;;;;;9.77;4.20;;;;;;;22.83;63.53;99168.53;7731055;32;37584;-81
2022/08/21 10:44:08;;;;;;;8.52;4.57;;;;;;;22.86;62.76;99162.22;7763879;32;39254;-80
2022/08/21 10:48:42;;;;;;;7.53;4.72;;;;;;;22.93;63.20;99166.31;7763586;32;40111;-81
2022/08/21 10:53:17;;;;;;;11.45;4.72;;;;;;;22.28;64.66;99159.53;7759290;32;38571;-80
2022/08/21 10:58:07;;;;;;;7.40;4.72;;;;;;;22.99;62.54;99159.25;7779944;32;36720;-78
2022/08/21 11:02:33;;;;;;;10.13;5.40;;;;;;;23.15;62.70;99159.97;7738809;32;37744;-82
2022/08/21 11:07:19;;;;;;;7.55;4.20;;;;;;;23.25;61.48;99159.34;7773113;32;40810;-78
2022/08/21 11:11:49;;;;;;;7.10;5.00;;;;;;;23.73;59.89;99152.50;7766003;32;38619;-76
2022/08/21 11:16:51;;;;;;;7.97;4.45;;;;;;;22.96;61.76;99154.47;7765736;32;35693;-75
2022/08/21 11:21:36;;;;;;;8.52;4.50;;;;;;;23.30;62.11;99144.34;7766767;32;38925;-75
2022/08/21 11:26:07;;;;;;;6.32;3.92;;;;;;;23.45;60.97;99142.56;7789808;32;40731;-80
2022/08/21 11:30:30;;;;;;;8.55;3.75;;;;;;;23.77;61.49;99153.38;7751395;32;37889;-78
2022/08/21 11:35:12;;;;;;;8.23;4.47;;;;;;;23.85;60.34;99157.06;7775381;32;36979;-76
2022/08/21 11:39:44;;;;;;;9.38;4.80;;;;;;;23.29;61.19;99155.84;7776451;32;40078;-78
2022/08/21 11:44:15;;;;;;;8.82;4.25;;;;;;;23.13;61.52;99142.88;7790742;32;40026;-77
2022/08/21 11:49:13;;;;;;;9.02;4.70;;;;;;;23.41;61.47;99147.28;7793442;32;37562;-77
2022/08/21 11:53:37;;;;;;;5.68;3.67;;;;;;;23.86;60.97;99134.44;7785263;32;37383;-78
2022/08/21 11:57:59;;;;;;;6.20;3.70;;;;;;;23.96;60.35;99133.78;7793604;32;39945;-78
2022/08/21 12:02:31;;;;;;;7.73;4.50;;;;;;;23.83;61.17;99139.97;7782876;32;39946;-82
2022/08/21 12:06:49;;;;;;;10.43;4.68;;;;;;;24.56;58.39;99126.53;7766493;32;38717;-78
2022/08/21 12:11:24;;;;;;;10.43;3.85;;;;;;;24.26;58.39;99124.56;7780360;32;37737;-78
2022/08/21 12:15:45;;;;;;;6.22;3.67;;;;;;;24.60;58.81;99126.56;7780435;32;39049;-79
2022/08/21 12:20:25;;;;;;;5.28;3.55;;;;;;;24.46;58.81;99116.84;7785136;32;40737;-79
2022/08/21 12:24:43;;;;;;;6.20;3.90;;;;;;;25.08;58.29;99112.69;7755518;32;37896;-80
2022/08/21 12:29:16;;;;;;;11.65;4.03;;;;;;;24.95;57.25;99100.22;7771129;32;36337;-81
2022/08/21 12:33:36;;;;;;;6.12;3.47;;;;;;;24.99;56.04;99103.81;7772751;32;39203;-81
2022/08/21 12:38:21;;;;;;;5.93;3.60;;;;;;;25.56;55.27;99103.44;7776945;32;40147;-80
2022/08/21 12:42:46;;;;;;;5.62;3.50;;;;;;;25.49;56.25;99104.19;7792869;32;37592;-80
2022/08/21 12:47:22;;;;;;;4.93;3.22;;;;;;;25.01;56.30;99098.66;7780696;32;36838;-79
2022/08/21 12:52:05;;;;;;;6.32;3.37;;;;;;;24.92;57.33;99104.56;7792563;32;39210;-79
2022/08/21 12:56:25;;;;;;;4.70;3.12;;;;;;;24.49;58.01;99098.56;7765067;32;40858;-81
2022/08/21 13:00:52;;;;;;;3.78;2.65;;;;;;;24.89;56.88;99091.41;7775846;32;37921;-78
2022/08/21 13:05:13;;;;;;;3.28;2.40;;;;;;;24.84;57.54;99083.41;7766375;32;36904;-78
2022/08/21 13:09:30;;;;;;;9.50;3.05;;;;;;;25.03;57.35;99091.53;7751778;32;39218;-77
2022/08/21 13:13:52;;;;;;;3.80;2.70;;;;;;;24.96;57.36;99085.87;7765247;32;40777;-80
2022/08/21 13:18:18;;;;;;;3.50;2.30;;;;;;;24.47;57.89;99082.22;7782922;32;38639;-83
2022/08/21 13:22:42;;;;;;;4.85;2.17;;;;;;;24.46;59.52;99077.06;7792072;32;36714;-82
2022/08/21 13:26:59;;;;;;;3.80;2.37;;;;;;;24.86;56.79;99072.66;7788406;32;39248;-79
2022/08/21 13:31:26;;;;;;;3.15;2.20;;;;;;;24.45;57.80;99065.09;7769376;32;41255;-77
2022/08/21 13:36:11;;;;;;;4.12;2.28;;;;;;;24.53;57.51;99069.56;7769834;32;38623;-77
2022/08/21 13:40:51;;;;;;;3.10;2.40;;;;;;;24.54;58.34;99067.59;7784040;32;36800;-79
2022/08/21 13:45:13;;;;;;;2.80;2.20;;;;;;;24.53;58.67;99060.41;7779629;32;38509;-79
2022/08/21 13:49:34;;;;;;;3.17;2.05;;;;;;;24.52;57.92;99053.22;7789220;32;39874;-81
2022/08/21 13:53:52;;;;;;;5.70;2.33;;;;;;;24.32;58.46;99052.66;7751359;32;37989;-80
2022/08/21 13:58:09;;;;;;;2.87;2.17;;;;;;;23.88;60.20;99059.69;7764841;32;37065;-78
2022/08/21 14:02:25;;;;;;;6.07;2.30;;;;;;;23.59;61.29;99059.34;7764795;32;39323;-78
2022/08/21 14:06:41;;;;;;;2.60;1.92;;;;;;;23.51;62.00;99051.25;7763622;32;40688;-78
2022/08/21 14:10:58;;;;;;;1.90;1.70;;;;;;;23.84;61.24;99058.88;7767379;32;37601;-76
2022/08/21 14:15:17;;;;;;;19.45;15.00;;;;;;;24.09;59.91;99047.22;7777836;32;36965;-78
2022/08/21 14:19:41;;;;;;;4.40;1.70;;;;;;;23.66;61.04;99046.69;7791260;32;39431;-78
2022/08/21 14:24:24;;;;;;;2.15;1.80;;;;;;;24.15;59.90;99051.28;7791420;32;39905;-80
2022/08/21 14:28:41;;;;;;;1.85;1.62;;;;;;;24.21;60.22;99049.72;7779170;32;37847;-79
2022/08/21 14:32:59;;;;;;;3.33;2.15;;;;;;;23.80;60.80;99049.63;7774295;32;36651;-78
2022/08/21 14:37:16;;;;;;;3.08;1.67;;;;;;;23.91;60.73;99052.59;7764232;32;39933;-77
2022/08/21 14:41:32;;;;;;;4.80;1.73;;;;;;;23.73;61.03;99043.97;7763594;32;39980;-77
2022/08/21 14:45:49;;;;;;;2.55;1.50;;;;;;;24.02;60.46;99036.81;7763477;32;37858;-76
2022/08/21 14:50:05;;;;;;;3.22;1.73;;;;;;;23.90;60.49;99039.84;7763356;32;36887;-74
2022/08/21 14:54:22;;;;;;;3.85;1.70;;;;;;;23.11;63.24;99050.72;7763382;32;39347;-76
2022/08/21 14:58:48;;;;;;;4.50;1.77;;;;;;;23.81;61.01;99043.72;7763183;32;39942;-75
2022/08/21 15:03:05;;;;;;;1.65;1.42;;;;;;;23.91;60.69;99042.25;7773061;32;37966;-74
2022/08/21 15:07:21;;;;;;;2.72;1.60;;;;;;;23.71;62.08;99049.13;7774221;32;37652;-75
2022/08/21 15:11:37;;;;;;;4.50;1.87;;;;;;;23.51;63.32;99046.50;7762919;32;39147;-75
2022/08/21 15:15:57;;;;;;;5.18;2.42;;;;;;;23.99;62.70;99041.16;7762138;32;40555;-76
2022/08/21 15:20:14;;;;;;;3.35;2.28;;;;;;;23.88;63.21;99048.56;7765991;32;37619;-77
2022/08/21 15:24:30;;;;;;;6.30;2.22;;;;;;;23.93;62.98;99045.44;7766597;32;36865;-76
2022/08/21 15:28:46;;;;;;;5.28;2.55;;;;;;;23.69;64.11;99040.37;7752675;32;39980;-76
2022/08/21 15:33:02;;;;;;;3.87;2.65;;;;;;;23.66;64.88;99041.13;7766547;32;40206;-77
2022/08/21 15:37:19;;;;;;;3.40;2.60;;;;;;;23.72;64.61;99050.75;7766309;32;38115;-76
2022/08/21 15:41:35;;;;;;;4.65;2.85;;;;;;;23.40;65.46;99054.72;7766480;32;36642;-76
2022/08/21 15:45:52;;;;;;;4.75;2.45;;;;;;;23.51;64.99;99054.84;7766420;32;38967;-77
2022/08/21 15:50:08;;;;;;;5.05;2.90;;;;;;;23.67;64.72;99051.88;7752513;32;39928;-77
2022/08/21 15:54:25;;;;;;;6.45;2.97;;;;;;;23.48;65.07;99052.03;7769248;32;38729;-75
2022/08/21 15:58:41;;;;;;;6.62;3.12;;;;;;;23.50;65.35;99049.66;7766282;32;38079;-74
2022/08/21 16:02:58;;;;;;;5.43;3.35;;;;;;;23.30;66.25;99055.37;7770582;32;39703;-75
2022/08/21 16:07:15;;;;;;;9.10;3.35;;;;;;;23.38;66.17;99045.12;7766208;32;40914;-75
2022/08/21 16:11:32;;;;;;;5.85;2.97;;;;;;;23.02;67.77;99047.34;7774258;32;38472;-75
2022/08/21 16:15:48;;;;;;;7.75;3.05;;;;;;;23.27;66.64;99053.31;7759832;32;37026;-75
2022/08/21 16:20:09;;;;;;;9.98;3.70;;;;;;;23.15;67.02;99067.44;7791306;32;39895;-74
2022/08/21 16:24:25;;;;;;;8.57;3.70;;;;;;;23.07;67.45;99066.53;7779466;32;39650;-75
2022/08/21 16:28:45;;;;;;;10.65;4.15;;;;;;;22.96;67.96;99071.87;7777320;32;37822;-74
2022/08/21 16:33:04;;;;;;;11.05;3.85;;;;;;;22.93;68.07;99075.41;7769187;32;37086;-74
2022/08/21 16:37:21;;;;;;;8.27;3.75;;;;;;;22.88;68.26;99070.94;7777882;32;40014;-75
2022/08/21 16:41:39;;;;;;;7.25;3.40;;;;;;;22.96;67.88;99065.53;7778239;32;40050;-74
2022/08/21 16:45:57;;;;;;;11.55;4.28;;;;;;;22.24;70.43;99065.06;7770323;32;36489;-75
2022/08/21 16:50:18;;;;;;;6.80;3.50;;;;;;;22.39;69.59;99063.37;7778445;32;37851;-75
2022/08/21 16:54:34;;;;;;;10.80;3.90;;;;;;;22.46;68.99;99059.94;7770193;32;39636;-74
2022/08/21 16:58:52;;;;;;;11.38;3.80;;;;;;;22.21;69.60;99056.66;7775446;32;39985;-74
2022/08/21 17:03:12;;;;;;;9.77;3.90;;;;;;;22.09;70.45;99061.22;7777457;32;38623;-74
2022/08/21 17:07:29;;;;;;;11.05;4.20;;;;;;;22.33;69.08;99058.50;7764496;32;37701;-75
2022/08/21 17:11:51;;;;;;;8.70;3.60;;;;;;;22.45;69.14;99042.44;7774009;32;39437;-76
2022/08/21 17:16:08;;;;;;;11.93;4.10;;;;;;;22.39;69.62;99040.37;7771331;32;39796;-76
2022/08/21 17:20:25;;;;;;;9.88;4.25;;;;;;;22.64;68.88;99038.81;7775715;32;37987;-75
2022/08/21 17:24:41;;;;;;;9.43;4.00;;;;;;;22.59;69.10;99039.13;7769570;32;36943;-76
2022/08/21 17:28:58;;;;;;;12.00;4.18;;;;;;;22.63;69.23;99041.97;7765125;32;39258;-76
2022/08/21 17:33:16;;;;;;;10.82;4.18;;;;;;;22.65;69.42;99045.19;7777842;32;40836;-76
2022/08/21 17:37:32;;;;;;;12.82;4.80;;;;;;;22.67;69.53;99045.59;7774287;32;37965;-76
2022/08/21 17:41:48;;;;;;;8.70;4.53;;;;;;;22.77;69.15;99049.75;7770541;32;37222;-76
2022/08/21 17:46:19;;;;;;;9.52;4.30;;;;;;;22.84;68.95;99053.44;7776164;32;40030;-75
2022/08/21 17:50:37;;;;;;;9.27;4.18;;;;;;;22.84;69.09;99052.62;7774279;32;39999;-76
2022/08/21 17:54:53;;;;;;;12.02;4.43;;;;;;;22.73;69.60;99058.00;7773251;32;38491;-76
2022/08/21 17:59:11;;;;;;;7.18;4.15;;;;;;;22.80;69.61;99062.87;7776370;32;36530;-77
2022/08/21 18:03:28;;;;;;;7.85;4.30;;;;;;;22.97;69.05;99067.91;7764716;32;39833;-76
2022/08/21 18:07:47;;;;;;;11.85;6.03;;;;;;;22.90;69.30;99061.44;7770509;32;215390;-74
2022/08/21 18:12:04;;;;;;;11.90;5.22;;;;;;;22.96;69.15;99065.53;7776725;32;37982;-75
2022/08/21 18:16:22;;;;;;;8.43;4.85;;;;;;;22.56;70.55;99064.88;7777473;32;36657;-75
2022/08/21 18:20:38;;;;;;;6.97;5.15;;;;;;;22.63;70.56;99062.22;7777789;32;39257;-74
2022/08/21 18:24:54;;;;;;;5.95;3.53;;;;;;;22.50;71.27;99066.34;7775577;32;40833;-75
2022/08/21 18:29:12;;;;;;;7.25;3.25;;;;;;;22.48;70.86;99069.50;7776145;32;37986;-75
2022/08/21 18:33:29;;;;;;;5.37;2.95;;;;;;;22.30;71.25;99076.69;7769740;32;35889;-76
2022/08/21 18:37:45;;;;;;;7.20;3.30;;;;;;;22.39;71.25;99071.72;7756549;32;38963;-76
2022/08/21 18:42:07;;;;;;;6.03;3.08;;;;;;;22.55;70.61;99071.59;7777175;32;39727;-76
2022/08/21 18:46:23;;;;;;;5.32;3.50;;;;;;;22.15;71.77;99077.59;7774625;32;38552;-76
2022/08/21 18:50:42;;;;;;;5.00;3.30;;;;;;;22.12;71.72;99074.34;7773859;32;37153;-75
2022/08/21 18:55:02;;;;;;;5.47;2.93;;;;;;;21.81;72.85;99074.50;7765694;32;39428;-74
2022/08/21 18:59:30;;;;;;;9.63;3.25;;;;;;;21.94;72.67;99081.53;7770814;32;39619;-74
2022/08/21 19:03:46;;;;;;;4.60;2.87;;;;;;;21.93;72.89;99077.13;7772961;32;36940;-76
2022/08/21 19:08:05;;;;;;;4.72;2.72;;;;;;;21.64;73.75;99079.31;7766496;32;36935;-75
2022/08/21 19:12:25;;;;;;;4.45;2.65;;;;;;;21.73;73.31;99079.91;7774302;32;37956;-72
2022/08/21 19:16:47;;;;;;;4.45;2.60;;;;;;;21.69;72.88;99076.25;7787461;32;39802;-72
2022/08/21 19:21:03;;;;;;;6.20;2.60;;;;;;;21.78;72.40;99083.56;7791760;32;37927;-74
2022/08/21 19:25:20;;;;;;;7.20;2.90;;;;;;;21.46;73.83;99080.88;7780791;32;36876;-74
2022/08/21 19:29:49;;;;;;;4.43;2.67;;;;;;;21.59;73.28;99092.66;7766038;32;40133;-74
2022/08/21 19:34:12;;;;;;;4.00;2.33;;;;;;;21.91;72.44;99074.72;7777919;32;39914;-73
2022/08/21 19:38:30;;;;;;;3.83;1.90;;;;;;;21.89;71.76;99074.28;7754926;32;38009;-74
2022/08/21 19:42:47;;;;;;;4.15;2.50;;;;;;;21.51;72.34;99077.84;7771986;32;37984;-74
2022/08/21 19:47:06;;;;;;;4.72;2.42;;;;;;;21.60;72.59;99078.44;7754919;32;39414;-74
2022/08/21 19:51:23;;;;;;;8.68;2.35;;;;;;;21.36;73.55;99071.94;7781515;32;39867;-74
2022/08/21 19:55:44;;;;;;;3.58;2.35;;;;;;;21.65;72.38;99066.28;7773044;32;38466;-73
2022/08/21 20:00:06;;;;;;;4.25;2.30;;;;;;;21.26;73.39;99072.50;7765910;32;37804;-73
2022/08/21 20:04:23;;;;;;;3.53;2.20;;;;;;;21.05;74.31;99060.94;7764427;32;39032;-73
2022/08/21 20:08:47;;;;;;;4.20;1.95;;;;;;;21.12;73.70;99061.09;7788073;32;38545;-74
2022/08/21 20:13:03;;;;;;;3.33;1.92;;;;;;;21.23;73.47;99053.84;7766058;32;37861;-74
2022/08/21 20:17:20;;;;;;;4.32;2.12;;;;;;;21.29;72.98;99057.94;7754534;32;36829;-76
2022/08/21 20:21:36;;;;;;;3.17;2.00;;;;;;;21.04;73.85;99062.91;7784795;32;39375;-74